Ocean Liberty — WDE2762 — position and weather

sailwx.info

Track history (hours):
 
Tides and Currents Weather Stations Pressure Air Temp Water Temp Dewpoint Dewpoint Depression Visibility Wind Speed Wind Dir Waves Ship Positions

Ocean Liberty

Owner: Marine Spill Response Corporation, Long Beach, CA. More information available from US FCC via Universal Licensing System and Coast Guard Vessel Documentation Center.

Last reported at 2016-Dec-09 02:07 UTC. Time now 2016-Dec-11 04:19 UTC.
Position N 33°46' W 118°13'.

; draft 2 m.

Type: Pollution control. MMSI: 367329330.

Date/timePositionNaut miles runAvg speedWind from/ knotsBaromVisibWave heightAir tempDewpointWater temp
2016-Dec-09 02:07N 33°46' W 118°13'0 0.0
2016-Dec-09 01:31N 33°46' W 118°13'0 0.0
2016-Dec-09 00:22N 33°46' W 118°13'3 0.3
2016-Dec-08 17:06N 33°44' W 118°13'0 0.4
2016-Dec-08 16:10N 33°44' W 118°14'2 1.0
2016-Dec-08 14:04N 33°44' W 118°16'3 3.9
2016-Dec-08 13:18N 33°45' W 118°13'  
2016-Dec-05 15:30N 33°46' W 118°13'0 0.0
2016-Dec-05 11:06N 33°46' W 118°13'0 0.0
2016-Dec-05 10:33N 33°46' W 118°13'0 0.0
2016-Dec-05 09:18N 33°46' W 118°13'0 0.0
2016-Dec-05 08:33N 33°46' W 118°13'0 0.0
2016-Dec-05 07:33N 33°46' W 118°13'0 0.0
2016-Dec-05 06:30N 33°46' W 118°13'0 0.0
2016-Dec-05 05:24N 33°46' W 118°13'0 0.0
2016-Dec-04 17:27N 33°46' W 118°13'0 0.0
2016-Dec-04 16:24N 33°46' W 118°13'0 0.0
2016-Dec-04 12:20N 33°46' W 118°13'0 0.0
2016-Dec-04 11:26N 33°46' W 118°13'0 0.0
2016-Dec-04 10:32N 33°46' W 118°13'0 0.0
2016-Dec-04 09:08N 33°46' W 118°13'0 0.0
2016-Dec-04 08:17N 33°46' W 118°13'0 0.0
2016-Dec-04 07:32N 33°46' W 118°13'0 0.0
2016-Dec-04 01:29N 33°46' W 118°13'0 0.0
2016-Dec-02 12:10N 33°46' W 118°13'0 0.0
2016-Dec-01 21:28N 33°46' W 118°13'0 0.0
2016-Nov-30 02:16N 33°46' W 118°13'0 0.0
2016-Nov-30 01:07N 33°46' W 118°13'0 0.0
2016-Nov-29 16:04N 33°46' W 118°13'0 0.0
2016-Nov-29 15:31N 33°46' W 118°13'0 0.0
2016-Nov-29 14:31N 33°46' W 118°13'0 0.0
2016-Nov-29 13:28N 33°46' W 118°13'  
Track history (hours):
 
Tides and Currents Weather Stations Pressure Air Temp Water Temp Dewpoint Dewpoint Depression Visibility Wind Speed Wind Dir Waves Ship Positions

Ocean Liberty

Owner: Marine Spill Response Corporation, Long Beach, CA. More information available from US FCC via Universal Licensing System and Coast Guard Vessel Documentation Center.

Last reported at 2016-Dec-09 02:07 UTC. Time now 2016-Dec-11 04:19 UTC.
Position N 33°46' W 118°13'.

; draft 2 m.

Type: Pollution control. MMSI: 367329330.

Date/timePositionNaut miles runAvg speedWind from/ knotsBaromVisibWave heightAir tempDewpointWater temp
2016-Dec-09 02:07N 33°46' W 118°13'0 0.0
2016-Dec-09 01:31N 33°46' W 118°13'0 0.0
2016-Dec-09 00:22N 33°46' W 118°13'3 0.3
2016-Dec-08 17:06N 33°44' W 118°13'0 0.4
2016-Dec-08 16:10N 33°44' W 118°14'2 1.0
2016-Dec-08 14:04N 33°44' W 118°16'3 3.9
2016-Dec-08 13:18N 33°45' W 118°13'  
2016-Dec-05 15:30N 33°46' W 118°13'0 0.0
2016-Dec-05 11:06N 33°46' W 118°13'0 0.0
2016-Dec-05 10:33N 33°46' W 118°13'0 0.0
2016-Dec-05 09:18N 33°46' W 118°13'0 0.0
2016-Dec-05 08:33N 33°46' W 118°13'0 0.0
2016-Dec-05 07:33N 33°46' W 118°13'0 0.0
2016-Dec-05 06:30N 33°46' W 118°13'0 0.0
2016-Dec-05 05:24N 33°46' W 118°13'0 0.0
2016-Dec-04 17:27N 33°46' W 118°13'0 0.0
2016-Dec-04 16:24N 33°46' W 118°13'0 0.0
2016-Dec-04 12:20N 33°46' W 118°13'0 0.0
2016-Dec-04 11:26N 33°46' W 118°13'0 0.0
2016-Dec-04 10:32N 33°46' W 118°13'0 0.0
2016-Dec-04 09:08N 33°46' W 118°13'0 0.0
2016-Dec-04 08:17N 33°46' W 118°13'0 0.0
2016-Dec-04 07:32N 33°46' W 118°13'0 0.0
2016-Dec-04 01:29N 33°46' W 118°13'0 0.0
2016-Dec-02 12:10N 33°46' W 118°13'0 0.0
2016-Dec-01 21:28N 33°46' W 118°13'0 0.0
2016-Nov-30 02:16N 33°46' W 118°13'0 0.0
2016-Nov-30 01:07N 33°46' W 118°13'0 0.0
2016-Nov-29 16:04N 33°46' W 118°13'0 0.0
2016-Nov-29 15:31N 33°46' W 118°13'0 0.0
2016-Nov-29 14:31N 33°46' W 118°13'0 0.0
2016-Nov-29 13:28N 33°46' W 118°13'  

Dump ship's entire track history